createdAt,value
2023-11-23T00:00:18.059Z,101627.81
2023-11-23T00:05:21.965Z,101632.66
2023-11-23T00:10:23.638Z,101647.06
2023-11-23T00:15:25.221Z,101665.75
2023-11-23T00:20:26.796Z,101646.84
2023-11-23T00:25:28.804Z,101634.81
2023-11-23T00:30:30.524Z,101641.59
2023-11-23T00:35:32.173Z,101621.66
2023-11-23T00:40:33.802Z,101619.91
2023-11-23T00:45:35.395Z,101629.03
2023-11-23T00:50:37.265Z,101637.41
2023-11-23T00:55:39.646Z,101637.88
2023-11-23T01:00:41.453Z,101624.19
2023-11-23T01:05:43.294Z,101613.09
2023-11-23T01:10:45.026Z,101610.19
2023-11-23T01:15:46.602Z,101615.88
2023-11-23T01:20:48.323Z,101612.91
2023-11-23T01:25:50.062Z,101586.22
2023-11-23T01:30:51.729Z,101566.84
2023-11-23T01:35:53.384Z,101564.41
2023-11-23T01:40:57.933Z,101559.59
2023-11-23T01:46:06.328Z,101549.84
2023-11-23T01:51:09.799Z,101550.75
2023-11-23T01:56:12.960Z,101554.78
2023-11-23T02:01:14.861Z,101551.88
2023-11-23T02:06:16.643Z,101554.09
2023-11-23T02:11:18.421Z,101567.63
2023-11-23T02:16:20.130Z,101569.41
2023-11-23T02:21:21.874Z,101550.34
2023-11-23T02:26:24.636Z,101552.09
2023-11-23T02:31:26.549Z,101550.91
2023-11-23T02:36:28.410Z,101553.09
2023-11-23T02:41:30.016Z,101553.63
2023-11-23T02:46:31.690Z,101547.19
2023-11-23T02:51:33.278Z,101550.63
2023-11-23T02:56:37.370Z,101551.25
2023-11-23T03:01:39.083Z,101542.94
2023-11-23T03:06:40.909Z,101539.53
2023-11-23T03:11:42.605Z,101530.63
2023-11-23T03:16:45.564Z,101533.19
2023-11-23T03:21:47.260Z,101536.22
2023-11-23T03:26:49.095Z,101542.13
2023-11-23T03:31:50.750Z,101535.16
2023-11-23T03:36:52.357Z,101533.72
2023-11-23T03:41:54.104Z,101533.34
2023-11-23T03:46:55.718Z,101530.28
2023-11-23T03:51:58.614Z,101532.38
2023-11-23T03:57:00.272Z,101536.91
2023-11-23T04:02:01.939Z,101533.38
2023-11-23T04:07:03.847Z,101534.59
2023-11-23T04:12:05.971Z,101538.63
2023-11-23T04:17:09.949Z,101527.13
2023-11-23T04:22:12.637Z,101534.47
2023-11-23T04:27:14.422Z,101523.22
2023-11-23T04:32:16.046Z,101529.09
2023-11-23T04:37:19.073Z,101523.47
2023-11-23T04:42:20.942Z,101521.75
2023-11-23T04:47:22.670Z,101520.28
2023-11-23T04:52:24.259Z,101514.44
2023-11-23T04:57:25.899Z,101511.00
2023-11-23T05:02:27.863Z,101498.41
2023-11-23T05:07:29.461Z,101512.97
2023-11-23T05:12:34.023Z,101502.94
2023-11-23T05:17:35.714Z,101515.75
2023-11-23T05:22:37.340Z,101522.59
2023-11-23T05:27:38.917Z,101525.66
2023-11-23T05:32:40.683Z,101531.25
2023-11-23T05:37:42.316Z,101529.81
2023-11-23T05:42:54.050Z,101535.81
2023-11-23T05:48:02.645Z,101533.47
2023-11-23T05:53:04.399Z,101542.88
2023-11-23T05:58:06.616Z,101551.19
2023-11-23T06:03:08.278Z,101533.78
2023-11-23T06:08:09.925Z,101526.06
2023-11-23T06:13:11.524Z,101518.50
2023-11-23T06:18:14.318Z,101516.63
2023-11-23T06:23:16.161Z,101519.88
2023-11-23T06:28:18.080Z,101516.81
2023-11-23T06:33:19.821Z,101501.41
2023-11-23T06:38:21.790Z,101490.13
2023-11-23T06:43:24.971Z,101492.88
2023-11-23T06:48:26.956Z,101490.50
2023-11-23T06:53:29.345Z,101490.38
2023-11-23T06:58:31.213Z,101496.53
2023-11-23T07:03:32.972Z,101510.88
2023-11-23T07:08:38.810Z,101520.84
2023-11-23T07:13:40.625Z,101526.25
2023-11-23T07:18:42.274Z,101528.84
2023-11-23T07:23:43.982Z,101523.00
2023-11-23T07:28:45.614Z,101524.78
2023-11-23T07:33:47.346Z,101527.47
2023-11-23T07:38:49.643Z,101519.06
2023-11-23T07:43:51.873Z,101518.34
2023-11-23T07:48:54.542Z,101522.72
2023-11-23T07:53:56.210Z,101532.22
2023-11-23T07:58:57.840Z,101534.03
2023-11-23T08:03:59.627Z,101536.97
2023-11-23T08:09:01.316Z,101527.41
2023-11-23T08:15:32.309Z,101540.78
2023-11-23T08:20:45.263Z,101529.00
2023-11-23T08:25:49.046Z,101516.38
2023-11-23T08:30:50.719Z,101518.91
2023-11-23T08:35:54.619Z,101507.81
2023-11-23T08:40:56.269Z,101491.66
2023-11-23T08:45:57.867Z,101477.31
2023-11-23T08:51:01.122Z,101458.94
2023-11-23T08:56:04.664Z,101463.97
2023-11-23T09:01:06.380Z,101462.91
2023-11-23T09:06:09.994Z,101451.13
2023-11-23T09:11:12.270Z,101409.97
2023-11-23T09:16:14.902Z,101417.81
2023-11-23T09:21:19.739Z,101421.31
2023-11-23T09:26:21.687Z,101417.97
2023-11-23T09:31:24.108Z,101409.50
2023-11-23T09:36:26.048Z,101401.88
2023-11-23T09:41:36.198Z,101399.38
2023-11-23T09:46:40.060Z,101395.31
2023-11-23T09:51:42.976Z,101397.91
2023-11-23T09:56:44.568Z,101390.59
2023-11-23T10:01:49.150Z,101380.94
2023-11-23T10:06:51.393Z,101373.81
2023-11-23T10:11:57.685Z,101371.28
2023-11-23T10:16:59.413Z,101363.78
2023-11-23T10:22:03.266Z,101364.63
2023-11-23T10:27:05.072Z,101356.31
2023-11-23T10:32:07.448Z,101342.41
2023-11-23T10:37:14.301Z,101340.50
2023-11-23T10:42:17.003Z,101327.75
2023-11-23T10:47:19.210Z,101319.91
2023-11-23T10:52:23.027Z,101307.94
2023-11-23T10:57:28.137Z,101297.03
2023-11-23T11:02:30.782Z,101277.44
2023-11-23T11:07:36.680Z,101272.31
2023-11-23T11:12:39.366Z,101264.78
2023-11-23T11:17:44.864Z,101269.50
2023-11-23T11:23:03.976Z,101256.19
2023-11-23T11:28:15.517Z,101256.69
2023-11-23T11:33:19.140Z,101247.84
2023-11-23T11:38:20.929Z,101253.91
2023-11-23T11:43:22.612Z,101237.84
2023-11-23T11:48:24.291Z,101228.13
2023-11-23T11:53:26.221Z,101207.84
2023-11-23T11:58:28.100Z,101194.69
2023-11-23T12:03:29.790Z,101169.00
2023-11-23T12:08:35.531Z,101170.50
2023-11-23T12:13:37.372Z,101157.66
2023-11-23T12:18:40.567Z,101133.22
2023-11-23T12:23:44.578Z,101125.34
2023-11-23T12:28:50.427Z,101124.31
2023-11-23T12:33:52.073Z,101106.59
2023-11-23T12:38:53.683Z,101122.03
2023-11-23T12:43:55.314Z,101100.97
2023-11-23T12:48:56.900Z,101092.84
2023-11-23T12:54:02.191Z,101092.81
2023-11-23T12:59:03.796Z,101073.56
2023-11-23T13:04:08.792Z,101062.94
2023-11-23T13:09:16.953Z,101056.59
2023-11-23T13:14:18.648Z,101074.06
2023-11-23T13:19:29.395Z,101062.41
2023-11-23T13:24:37.750Z,101049.44
2023-11-23T13:29:39.672Z,101047.06
2023-11-23T13:34:44.876Z,101033.84
2023-11-23T13:39:48.496Z,101049.31
2023-11-23T13:44:50.723Z,101034.13
2023-11-23T13:49:52.486Z,101032.06
2023-11-23T13:54:54.299Z,101008.75
2023-11-23T13:59:55.994Z,101023.78
2023-11-23T14:04:57.597Z,101048.03
2023-11-23T14:09:59.699Z,101033.75
2023-11-23T14:15:01.478Z,101008.31
2023-11-23T14:20:03.700Z,100997.50
2023-11-23T14:25:06.092Z,100984.75
2023-11-23T14:30:08.955Z,100986.84
2023-11-23T14:35:14.045Z,100984.63
2023-11-23T14:40:16.519Z,100993.34
2023-11-23T14:45:18.496Z,101004.41
2023-11-23T14:50:21.085Z,100995.03
2023-11-23T14:55:22.841Z,100987.34
2023-11-23T15:00:27.877Z,100988.88
2023-11-23T15:05:29.791Z,100987.63
2023-11-23T15:10:32.676Z,100988.47
2023-11-23T15:15:36.866Z,100975.16
2023-11-23T15:20:40.048Z,100970.75
2023-11-23T15:25:46.960Z,100966.34
2023-11-23T15:30:48.864Z,100961.34
2023-11-23T15:35:50.832Z,100941.75
2023-11-23T15:40:52.751Z,100934.88
2023-11-23T15:45:54.455Z,100943.53
2023-11-23T15:50:57.253Z,100933.09
2023-11-23T15:55:59.539Z,100928.09
2023-11-23T16:01:04.910Z,100899.47
2023-11-23T16:06:07.729Z,100877.50
2023-11-23T16:11:09.373Z,100880.50
2023-11-23T16:16:11.690Z,100882.25
2023-11-23T16:21:13.493Z,100853.84
2023-11-23T16:26:15.338Z,100843.28
2023-11-23T16:31:16.998Z,100863.28
2023-11-23T16:36:30.160Z,100871.72
2023-11-23T16:41:38.481Z,100868.22
2023-11-23T16:46:40.144Z,100857.97
2023-11-23T16:51:41.911Z,100842.50
2023-11-23T16:56:43.500Z,100835.63
2023-11-23T17:01:46.131Z,100832.31
2023-11-23T17:06:47.888Z,100798.34
2023-11-23T17:11:53.822Z,100793.34
2023-11-23T17:16:55.586Z,100809.53
2023-11-23T17:21:58.669Z,100807.66
2023-11-23T17:27:00.477Z,100810.66
2023-11-23T17:32:06.193Z,100816.56
2023-11-23T17:37:08.314Z,100824.78
2023-11-23T17:42:10.750Z,100797.53
2023-11-23T17:47:14.061Z,100779.53
2023-11-23T17:52:15.710Z,100785.84
2023-11-23T17:57:17.342Z,100762.97
2023-11-23T18:02:20.010Z,100747.44
2023-11-23T18:07:21.764Z,100746.78
2023-11-23T18:12:23.731Z,100720.78
2023-11-23T18:17:27.737Z,100741.75
2023-11-23T18:22:29.443Z,100743.22
2023-11-23T18:27:31.328Z,100752.06
2023-11-23T18:32:33.407Z,100742.41
2023-11-23T18:37:35.092Z,100731.31
2023-11-23T18:42:40.355Z,100727.56
2023-11-23T18:47:45.140Z,100738.47
2023-11-23T18:52:49.130Z,100751.06
2023-11-23T18:57:50.775Z,100747.50
2023-11-23T19:02:54.544Z,100736.56
2023-11-23T19:07:56.480Z,100720.00
2023-11-23T19:13:04.102Z,100699.84
2023-11-23T19:18:09.339Z,100710.75
2023-11-23T19:23:11.435Z,100698.38
2023-11-23T19:28:13.298Z,100679.28
2023-11-23T19:33:15.399Z,100670.25
2023-11-23T19:38:17.256Z,100658.69
2023-11-23T19:43:19.105Z,100658.03
2023-11-23T19:48:21.056Z,100637.69
2023-11-23T19:53:26.840Z,100626.56
2023-11-23T19:58:28.425Z,100659.28
2023-11-23T20:03:30.990Z,100665.78
2023-11-23T20:08:33.137Z,100642.28
2023-11-23T20:13:35.317Z,100660.75
2023-11-23T20:18:37.171Z,100633.88
2023-11-23T20:23:39.585Z,100630.69
2023-11-23T20:28:41.206Z,100606.59
2023-11-23T20:33:42.873Z,100616.22
2023-11-23T20:38:45.280Z,100601.94
2023-11-23T20:43:46.926Z,100584.31
2023-11-23T20:48:50.917Z,100561.00
2023-11-23T20:53:53.772Z,100545.72
2023-11-23T20:58:55.973Z,100543.81
2023-11-23T21:03:58.009Z,100532.06
2023-11-23T21:09:01.841Z,100519.66
2023-11-23T21:14:05.449Z,100520.72
2023-11-23T21:19:07.299Z,100526.38
2023-11-23T21:24:10.004Z,100516.75
2023-11-23T21:29:12.506Z,100527.66
2023-11-23T21:34:14.108Z,100536.84
2023-11-23T21:39:15.778Z,100531.81
2023-11-23T21:44:18.144Z,100497.84
2023-11-23T21:49:19.750Z,100459.06
2023-11-23T21:54:21.397Z,100448.34
2023-11-23T21:59:23.349Z,100444.56
2023-11-23T22:04:24.961Z,100442.06
2023-11-23T22:09:31.817Z,100434.97
2023-11-23T22:14:33.730Z,100413.78
2023-11-23T22:19:36.212Z,100404.34
2023-11-23T22:24:38.776Z,100406.66
2023-11-23T22:29:40.557Z,100390.94
2023-11-23T22:34:42.602Z,100395.97
2023-11-23T22:39:44.391Z,100405.19
2023-11-23T22:44:46.317Z,100410.66
2023-11-23T22:49:50.575Z,100421.75
2023-11-23T22:54:53.630Z,100431.84
2023-11-23T22:59:55.693Z,100437.50
2023-11-23T23:04:57.291Z,100437.69
2023-11-23T23:09:59.025Z,100432.63
2023-11-23T23:15:00.692Z,100414.19
2023-11-23T23:20:02.329Z,100407.25
2023-11-23T23:25:05.621Z,100408.28
2023-11-23T23:30:10.061Z,100395.28
2023-11-23T23:35:12.293Z,100392.09
2023-11-23T23:40:14.872Z,100381.16
2023-11-23T23:45:16.760Z,100382.38
2023-11-23T23:50:19.674Z,100356.84
2023-11-23T23:55:21.527Z,100328.31
